createdAt,value
2022-11-22T00:01:22.798Z,10.23
2022-11-22T00:03:54.921Z,9.68
2022-11-22T00:06:26.967Z,8.90
2022-11-22T00:08:58.967Z,9.18
2022-11-22T00:11:30.941Z,9.30
2022-11-22T00:14:03.351Z,8.27
2022-11-22T00:16:35.607Z,9.90
2022-11-22T00:19:08.917Z,9.27
2022-11-22T00:21:41.014Z,9.80
2022-11-22T00:24:13.795Z,10.50
2022-11-22T00:26:46.017Z,11.75
2022-11-22T00:29:18.205Z,8.82
2022-11-22T00:31:50.576Z,9.57
2022-11-22T00:34:22.734Z,10.27
2022-11-22T00:36:55.038Z,9.43
2022-11-22T00:39:27.660Z,7.65
2022-11-22T00:42:00.173Z,11.20
2022-11-22T00:44:32.200Z,8.43
2022-11-22T00:47:04.450Z,8.88
2022-11-22T00:49:36.476Z,8.63
2022-11-22T00:52:08.504Z,9.70
2022-11-22T00:54:40.557Z,7.63
2022-11-22T00:57:12.603Z,8.25
2022-11-22T00:59:44.679Z,9.55
2022-11-22T01:02:16.839Z,9.25
2022-11-22T01:04:48.902Z,9.07
2022-11-22T01:07:20.955Z,11.90
2022-11-22T01:09:53.187Z,6.90
2022-11-22T01:12:25.684Z,10.10
2022-11-22T01:14:57.739Z,7.70
2022-11-22T01:17:30.519Z,8.40
2022-11-22T01:20:03.509Z,9.98
2022-11-22T01:22:35.499Z,9.33
2022-11-22T01:25:08.471Z,7.10
2022-11-22T01:27:40.562Z,7.60
2022-11-22T01:30:12.998Z,15.52
2022-11-22T01:32:45.125Z,9.02
2022-11-22T01:35:17.116Z,7.07
2022-11-22T01:37:49.205Z,8.60
2022-11-22T01:40:21.519Z,7.32
2022-11-22T01:42:56.462Z,7.57
2022-11-22T01:45:31.492Z,5.65
2022-11-22T01:48:15.212Z,7.00
2022-11-22T01:50:50.417Z,5.85
2022-11-22T01:53:35.995Z,6.38
2022-11-22T01:56:13.009Z,9.77
2022-11-22T01:58:50.124Z,8.13
2022-11-22T02:01:22.350Z,6.57
2022-11-22T02:03:58.130Z,5.00
2022-11-22T02:06:41.804Z,5.18
2022-11-22T02:09:14.688Z,5.60
2022-11-22T02:11:50.991Z,5.78
2022-11-22T02:14:26.258Z,9.85
2022-11-22T02:16:58.326Z,7.07
2022-11-22T02:19:43.171Z,6.28
2022-11-22T02:22:41.222Z,4.45
2022-11-22T02:25:21.550Z,8.15
2022-11-22T02:27:53.928Z,4.68
2022-11-22T02:30:26.092Z,4.35
2022-11-22T02:32:58.414Z,5.40
2022-11-22T02:35:31.093Z,4.53
2022-11-22T02:38:15.361Z,4.13
2022-11-22T02:41:02.244Z,4.97
2022-11-22T02:43:38.888Z,4.43
2022-11-22T02:46:13.619Z,5.50
2022-11-22T02:48:45.722Z,2.85
2022-11-22T02:53:57.474Z,2.63
2022-11-22T02:56:29.657Z,3.88
2022-11-22T02:59:01.638Z,4.15
2022-11-22T03:01:33.967Z,3.92
2022-11-22T03:04:06.248Z,4.53
2022-11-22T03:06:38.285Z,4.80
2022-11-22T03:09:10.270Z,4.53
2022-11-22T03:11:42.293Z,4.10
2022-11-22T03:14:15.813Z,4.82
2022-11-22T03:16:48.334Z,6.55
2022-11-22T03:19:20.548Z,3.08
2022-11-22T03:21:52.645Z,4.07
2022-11-22T03:24:24.687Z,6.40
2022-11-22T03:26:56.681Z,6.75
2022-11-22T03:29:28.994Z,4.05
2022-11-22T03:32:01.513Z,4.85
2022-11-22T03:34:36.073Z,5.82
2022-11-22T03:37:08.248Z,4.28
2022-11-22T03:39:40.254Z,3.80
2022-11-22T03:42:16.711Z,3.67
2022-11-22T03:44:51.854Z,3.45
2022-11-22T03:47:24.264Z,3.75
2022-11-22T03:49:56.363Z,3.60
2022-11-22T03:52:29.596Z,3.28
2022-11-22T03:55:04.301Z,2.58
2022-11-22T03:57:36.410Z,4.88
2022-11-22T04:00:09.338Z,4.85
2022-11-22T04:02:44.317Z,4.53
2022-11-22T04:05:16.423Z,4.15
2022-11-22T04:07:49.112Z,5.03
2022-11-22T04:10:22.543Z,5.47
2022-11-22T04:12:58.843Z,6.03
2022-11-22T04:15:30.874Z,8.88
2022-11-22T04:18:03.068Z,3.03
2022-11-22T04:20:53.828Z,3.42
2022-11-22T04:23:32.292Z,3.53
2022-11-22T04:26:05.891Z,6.55
2022-11-22T04:29:08.052Z,7.38
2022-11-22T04:31:54.306Z,4.45
2022-11-22T04:34:33.430Z,5.22
2022-11-22T04:37:08.761Z,4.45
2022-11-22T04:39:40.830Z,5.40
2022-11-22T04:42:31.336Z,5.65
2022-11-22T04:45:03.509Z,5.28
2022-11-22T04:47:54.164Z,10.65
2022-11-22T04:50:49.016Z,27.67
2022-11-22T04:53:21.106Z,53.38
2022-11-22T04:55:53.138Z,40.67
2022-11-22T04:58:25.183Z,31.52
2022-11-22T05:00:57.216Z,24.38
2022-11-22T05:03:29.299Z,39.40
2022-11-22T05:06:02.965Z,22.10
2022-11-22T05:11:06.765Z,17.10
2022-11-22T05:13:41.041Z,18.77
2022-11-22T05:16:15.224Z,10.75
2022-11-22T05:18:59.437Z,8.68
2022-11-22T05:21:33.365Z,7.63
2022-11-22T05:24:05.707Z,11.23
2022-11-22T05:26:37.766Z,4.80
2022-11-22T05:29:11.231Z,6.03
2022-11-22T05:34:21.882Z,3.70
2022-11-22T05:36:54.046Z,14.02
2022-11-22T05:39:26.019Z,5.10
2022-11-22T05:41:58.046Z,6.18
2022-11-22T05:44:30.045Z,18.33
2022-11-22T05:47:02.115Z,8.85
2022-11-22T05:49:34.136Z,14.25
2022-11-22T05:52:06.115Z,13.98
2022-11-22T05:54:38.080Z,10.55
2022-11-22T05:57:10.067Z,8.60
2022-11-22T05:59:44.267Z,2.72
2022-11-22T06:02:16.833Z,7.10
2022-11-22T06:04:48.794Z,6.80
2022-11-22T06:07:20.801Z,10.60
2022-11-22T06:09:53.214Z,8.00
2022-11-22T06:12:25.280Z,6.35
2022-11-22T06:14:57.582Z,7.25
2022-11-22T06:17:29.580Z,5.32
2022-11-22T06:20:06.253Z,7.47
2022-11-22T06:22:38.716Z,6.97
2022-11-22T06:25:10.978Z,7.35
2022-11-22T06:27:43.010Z,8.85
2022-11-22T06:30:15.485Z,6.57
2022-11-22T06:32:47.459Z,8.60
2022-11-22T06:35:19.843Z,9.55
2022-11-22T06:37:56.083Z,6.38
2022-11-22T06:40:31.310Z,9.05
2022-11-22T06:43:03.266Z,8.13
2022-11-22T06:45:35.213Z,6.50
2022-11-22T06:48:07.135Z,6.47
2022-11-22T06:50:39.221Z,8.93
2022-11-22T06:53:26.560Z,10.90
2022-11-22T06:56:05.750Z,11.05
2022-11-22T06:58:38.416Z,10.43
2022-11-22T07:01:13.253Z,9.93
2022-11-22T07:03:45.826Z,10.48
2022-11-22T07:06:19.439Z,10.70
2022-11-22T07:11:25.987Z,9.10
2022-11-22T07:14:06.547Z,10.27
2022-11-22T07:16:40.043Z,9.75
2022-11-22T07:19:12.256Z,5.45
2022-11-22T07:21:44.292Z,11.68
2022-11-22T07:24:16.250Z,6.72
2022-11-22T07:26:48.180Z,7.93
2022-11-22T07:29:20.407Z,10.80
2022-11-22T07:31:52.336Z,9.40
2022-11-22T07:34:24.353Z,8.48
2022-11-22T07:37:00.497Z,10.35
2022-11-22T07:39:34.383Z,14.88
2022-11-22T07:42:06.448Z,11.02
2022-11-22T07:44:38.475Z,19.42
2022-11-22T07:47:10.762Z,13.65
2022-11-22T07:49:43.116Z,31.45
2022-11-22T07:52:15.469Z,28.92
2022-11-22T07:54:47.561Z,31.50
2022-11-22T07:57:19.521Z,38.47
2022-11-22T07:59:51.663Z,44.67
2022-11-22T08:02:24.100Z,50.60
2022-11-22T08:04:56.136Z,25.52
2022-11-22T08:07:28.200Z,13.45
2022-11-22T08:10:00.282Z,13.32
2022-11-22T08:12:32.384Z,13.57
2022-11-22T08:15:04.800Z,14.25
2022-11-22T08:17:37.162Z,16.67
2022-11-22T08:20:09.954Z,19.98
2022-11-22T08:22:42.663Z,15.10
2022-11-22T08:25:14.694Z,16.48
2022-11-22T08:27:46.748Z,15.27
2022-11-22T08:30:18.762Z,16.40
2022-11-22T08:32:51.907Z,14.25
2022-11-22T08:35:23.851Z,15.10
2022-11-22T08:37:59.105Z,15.25
2022-11-22T08:40:31.114Z,13.52
2022-11-22T08:43:03.090Z,13.27
2022-11-22T08:45:35.053Z,18.65
2022-11-22T08:48:07.119Z,15.15
2022-11-22T08:50:39.176Z,23.83
2022-11-22T08:53:11.194Z,17.73
2022-11-22T08:55:43.152Z,17.25
2022-11-22T08:58:15.246Z,16.35
2022-11-22T09:00:47.266Z,23.45
2022-11-22T09:03:19.346Z,15.13
2022-11-22T09:08:48.148Z,16.02
2022-11-22T09:11:25.900Z,12.63
2022-11-22T09:13:58.051Z,15.43
2022-11-22T09:16:30.071Z,12.18
2022-11-22T09:19:02.065Z,13.10
2022-11-22T09:21:34.175Z,16.42
2022-11-22T09:24:06.990Z,14.43
2022-11-22T09:26:39.153Z,21.30
2022-11-22T09:29:11.156Z,14.07
2022-11-22T09:31:43.886Z,16.52
2022-11-22T09:34:15.794Z,13.97
2022-11-22T09:36:48.059Z,14.02
2022-11-22T09:39:19.983Z,11.00
2022-11-22T09:42:10.634Z,15.27
2022-11-22T09:45:16.542Z,13.45
2022-11-22T09:48:10.178Z,16.00
2022-11-22T09:51:00.840Z,17.35
2022-11-22T09:54:05.878Z,16.55
2022-11-22T09:56:38.755Z,17.98
2022-11-22T09:59:22.979Z,17.58
2022-11-22T10:02:18.746Z,19.60
2022-11-22T10:05:00.268Z,20.40
2022-11-22T10:07:40.898Z,17.00
2022-11-22T10:10:24.905Z,18.73
2022-11-22T10:16:11.817Z,10.70
2022-11-22T10:18:54.517Z,14.27
2022-11-22T10:21:27.330Z,14.35
2022-11-22T10:23:59.600Z,12.52
2022-11-22T10:26:33.826Z,8.18
2022-11-22T10:29:11.768Z,12.65
2022-11-22T10:31:43.748Z,18.15
2022-11-22T10:34:18.476Z,14.98
2022-11-22T10:37:04.158Z,5.95
2022-11-22T10:39:46.654Z,17.33
2022-11-22T10:42:56.048Z,7.57
2022-11-22T10:45:47.219Z,10.80
2022-11-22T10:48:48.278Z,16.08
2022-11-22T10:51:32.561Z,14.18
2022-11-22T10:54:13.499Z,11.27
2022-11-22T10:56:52.935Z,13.50
2022-11-22T10:59:36.698Z,18.15
2022-11-22T11:02:20.642Z,16.55
2022-11-22T11:07:27.608Z,13.63
2022-11-22T11:10:14.916Z,13.05
2022-11-22T11:12:58.469Z,14.65
2022-11-22T11:15:35.908Z,5.47
2022-11-22T11:18:21.487Z,6.57
2022-11-22T11:20:54.117Z,10.40
2022-11-22T11:23:26.189Z,11.45
2022-11-22T11:26:27.156Z,8.02
2022-11-22T11:29:25.055Z,9.90
2022-11-22T11:32:09.280Z,13.45
2022-11-22T11:34:52.585Z,15.07
2022-11-22T11:37:32.359Z,7.18
2022-11-22T11:40:06.332Z,13.00
2022-11-22T11:42:38.479Z,10.98
2022-11-22T11:45:19.219Z,11.32
2022-11-22T11:47:51.621Z,7.47
2022-11-22T11:50:26.320Z,5.95
2022-11-22T11:53:06.015Z,5.07
2022-11-22T11:55:38.111Z,8.23
2022-11-22T11:58:23.914Z,7.78
2022-11-22T12:00:57.596Z,9.35
2022-11-22T12:03:29.796Z,7.90
2022-11-22T12:06:13.070Z,9.70
2022-11-22T12:08:45.106Z,12.23
2022-11-22T12:11:23.400Z,15.45
2022-11-22T12:16:58.488Z,13.23
2022-11-22T12:19:51.009Z,19.73
2022-11-22T12:22:49.959Z,14.88
2022-11-22T12:25:36.494Z,11.65
2022-11-22T12:28:19.400Z,6.97
2022-11-22T12:30:56.896Z,13.85
2022-11-22T12:33:39.967Z,16.73
2022-11-22T12:36:32.495Z,16.23
2022-11-22T12:39:08.641Z,11.57
2022-11-22T12:41:43.063Z,5.35
2022-11-22T12:44:18.737Z,10.32
2022-11-22T12:47:00.303Z,10.30
2022-11-22T12:49:49.390Z,8.50
2022-11-22T12:52:35.037Z,10.23
2022-11-22T12:55:26.426Z,9.50
2022-11-22T12:58:05.094Z,10.25
2022-11-22T13:01:03.456Z,9.57
2022-11-22T13:03:56.097Z,8.73
2022-11-22T13:07:01.474Z,4.15
2022-11-22T13:09:41.593Z,11.13
2022-11-22T13:12:17.815Z,6.85
2022-11-22T13:14:55.248Z,11.70
2022-11-22T13:17:35.489Z,8.35
2022-11-22T13:20:18.381Z,8.65
2022-11-22T13:23:24.251Z,9.50
2022-11-22T13:26:15.082Z,10.00
2022-11-22T13:28:48.776Z,15.07
2022-11-22T13:31:20.898Z,9.45
2022-11-22T13:33:56.867Z,12.05
2022-11-22T13:36:31.570Z,10.00
2022-11-22T13:39:09.251Z,13.48
2022-11-22T13:41:58.012Z,9.30
2022-11-22T13:44:33.179Z,8.23
2022-11-22T13:47:34.164Z,8.27
2022-11-22T13:50:40.417Z,7.05
2022-11-22T13:53:48.093Z,10.63
2022-11-22T13:56:23.160Z,19.80
2022-11-22T13:59:19.464Z,11.57
2022-11-22T14:01:55.507Z,11.18
2022-11-22T14:04:32.149Z,9.18
2022-11-22T14:07:10.262Z,7.70
2022-11-22T14:09:42.372Z,10.25
2022-11-22T14:12:25.144Z,7.82
2022-11-22T14:15:13.872Z,10.68
2022-11-22T14:17:54.560Z,11.68
2022-11-22T14:20:38.673Z,7.78
2022-11-22T14:23:32.296Z,9.70
2022-11-22T14:26:20.471Z,9.38
2022-11-22T14:29:07.674Z,10.52
2022-11-22T14:31:40.601Z,10.20
2022-11-22T14:34:24.273Z,10.20
2022-11-22T14:37:11.407Z,8.15
2022-11-22T14:39:53.435Z,11.70
2022-11-22T14:42:41.895Z,6.32
2022-11-22T14:45:22.936Z,10.68
2022-11-22T14:48:39.197Z,5.97
2022-11-22T14:51:32.049Z,12.82
2022-11-22T14:54:17.894Z,13.90
2022-11-22T14:56:51.266Z,9.57
2022-11-22T14:59:44.727Z,13.48
2022-11-22T15:02:38.587Z,13.68
2022-11-22T15:09:12.365Z,11.73
2022-11-22T15:09:23.220Z,8.27
2022-11-22T15:11:52.903Z,9.57
2022-11-22T15:59:45.163Z,15.82
2022-11-22T16:02:21.404Z,27.27
2022-11-22T16:06:09.146Z,31.42
2022-11-22T16:08:01.905Z,23.77
2022-11-22T16:10:42.639Z,20.70
2022-11-22T16:13:20.460Z,26.45
2022-11-22T16:16:11.130Z,23.00
2022-11-22T16:18:44.555Z,29.58
2022-11-22T16:21:16.616Z,26.50
2022-11-22T16:24:11.673Z,29.58
2022-11-22T16:26:58.243Z,45.80
2022-11-22T16:29:33.278Z,46.05
2022-11-22T16:32:13.972Z,35.70
2022-11-22T16:34:51.571Z,31.15
2022-11-22T16:37:37.800Z,17.48
2022-11-22T16:40:14.266Z,24.17
2022-11-22T16:42:46.368Z,23.42
2022-11-22T16:45:21.428Z,22.55
2022-11-22T16:48:16.717Z,20.08
2022-11-22T16:50:56.462Z,24.08
2022-11-22T16:53:37.525Z,28.88
2022-11-22T16:56:19.520Z,30.40
2022-11-22T16:58:52.723Z,29.55
2022-11-22T17:01:27.367Z,26.30
2022-11-22T17:04:01.640Z,21.90
2022-11-22T17:06:33.787Z,23.58
2022-11-22T17:09:05.772Z,28.52
2022-11-22T17:11:38.128Z,28.90
2022-11-22T17:14:17.647Z,26.27
2022-11-22T17:16:49.685Z,29.15
2022-11-22T17:19:51.469Z,27.23
2022-11-22T17:22:16.075Z,23.40
2022-11-22T17:24:48.099Z,28.48
2022-11-22T17:27:20.071Z,23.25
2022-11-22T17:29:57.294Z,19.67
2022-11-22T17:32:31.846Z,22.75
2022-11-22T17:35:04.104Z,28.42
2022-11-22T17:37:36.114Z,29.92
2022-11-22T17:40:12.416Z,23.52
2022-11-22T17:42:44.623Z,35.05
2022-11-22T17:45:17.186Z,32.55
2022-11-22T17:47:49.391Z,22.38
2022-11-22T17:50:22.010Z,22.80
2022-11-22T17:52:54.130Z,19.58
2022-11-22T17:55:32.769Z,26.98
2022-11-22T17:58:14.956Z,36.35
2022-11-22T18:00:47.086Z,32.58
2022-11-22T18:03:19.289Z,25.60
2022-11-22T18:05:51.633Z,22.55
2022-11-22T18:08:23.791Z,23.17
2022-11-22T18:10:57.417Z,29.90
2022-11-22T18:16:04.470Z,31.50
2022-11-22T18:18:56.223Z,32.78
2022-11-22T18:21:30.526Z,29.15
2022-11-22T18:24:03.379Z,28.25
2022-11-22T18:26:40.376Z,26.67
2022-11-22T18:32:06.058Z,30.10
2022-11-22T18:34:38.269Z,26.58
2022-11-22T18:37:10.428Z,25.13
2022-11-22T18:39:42.499Z,28.00
2022-11-22T18:42:16.289Z,26.48
2022-11-22T18:44:48.344Z,28.13
2022-11-22T18:47:20.562Z,27.65
2022-11-22T18:49:52.688Z,32.15
2022-11-22T18:52:40.439Z,27.80
2022-11-22T18:55:15.840Z,32.53
2022-11-22T18:57:51.440Z,24.45
2022-11-22T19:00:23.816Z,34.35
2022-11-22T19:02:56.517Z,34.97
2022-11-22T19:05:28.708Z,28.05
2022-11-22T19:08:01.065Z,35.55
2022-11-22T19:10:33.271Z,36.85
2022-11-22T19:13:05.441Z,44.60
2022-11-22T19:15:37.571Z,31.52
2022-11-22T19:18:09.819Z,39.97
2022-11-22T19:20:55.161Z,34.67
2022-11-22T19:23:28.001Z,41.55
2022-11-22T19:26:05.178Z,33.65
2022-11-22T19:28:37.418Z,27.63
2022-11-22T19:31:15.373Z,41.25
2022-11-22T19:33:47.704Z,37.00
2022-11-22T19:36:23.500Z,31.10
2022-11-22T19:38:58.709Z,51.72
2022-11-22T19:41:31.251Z,70.00
2022-11-22T19:44:03.641Z,58.38
2022-11-22T19:46:46.374Z,51.80
2022-11-22T19:49:29.441Z,40.55
2022-11-22T19:52:04.420Z,41.88
2022-11-22T19:54:36.942Z,35.95
2022-11-22T19:57:29.840Z,34.20
2022-11-22T20:00:12.887Z,36.60
2022-11-22T20:02:45.366Z,30.23
2022-11-22T20:05:20.592Z,26.27
2022-11-22T20:07:55.930Z,30.70
2022-11-22T20:10:27.984Z,29.55
2022-11-22T20:13:00.284Z,27.55
2022-11-22T20:15:32.448Z,24.83
2022-11-22T20:18:05.002Z,32.63
2022-11-22T20:20:37.100Z,25.25
2022-11-22T20:23:09.105Z,18.42
2022-11-22T20:25:41.867Z,18.58
2022-11-22T20:28:14.209Z,21.33
2022-11-22T20:30:46.274Z,19.27
2022-11-22T20:33:18.379Z,12.80
2022-11-22T20:35:50.352Z,16.85
2022-11-22T20:38:22.569Z,18.67
2022-11-22T20:40:57.697Z,20.23
2022-11-22T20:43:31.341Z,17.13
2022-11-22T20:48:38.152Z,20.13
2022-11-22T20:51:13.534Z,15.73
2022-11-22T20:53:46.058Z,12.63
2022-11-22T20:56:18.458Z,15.38
2022-11-22T20:58:50.586Z,18.65
2022-11-22T21:01:25.543Z,13.15
2022-11-22T21:03:58.124Z,14.85
2022-11-22T21:06:32.973Z,13.57
2022-11-22T21:09:05.045Z,12.98
2022-11-22T21:11:39.553Z,14.13
2022-11-22T21:14:11.673Z,16.45
2022-11-22T21:16:43.680Z,16.70
2022-11-22T21:19:16.207Z,18.38
2022-11-22T21:21:48.223Z,16.40
2022-11-22T21:24:20.288Z,16.10
2022-11-22T21:26:52.356Z,20.27
2022-11-22T21:29:24.985Z,17.95
2022-11-22T21:31:57.298Z,21.17
2022-11-22T21:34:29.679Z,18.45
2022-11-22T21:37:01.893Z,18.65
2022-11-22T21:39:33.929Z,19.52
2022-11-22T21:42:06.036Z,24.20
2022-11-22T21:44:38.067Z,18.85
2022-11-22T21:47:10.541Z,17.00
2022-11-22T21:49:42.560Z,9.88
2022-11-22T21:52:14.670Z,15.95
2022-11-22T21:54:46.740Z,10.95
2022-11-22T21:57:18.905Z,10.80
2022-11-22T21:59:50.998Z,13.18
2022-11-22T22:02:24.193Z,11.90
2022-11-22T22:04:56.268Z,8.13
2022-11-22T22:10:20.461Z,12.15
2022-11-22T22:12:52.673Z,10.98
2022-11-22T22:15:25.221Z,10.15
2022-11-22T22:17:58.557Z,10.20
2022-11-22T22:20:30.943Z,10.23
2022-11-22T22:23:02.995Z,9.05
2022-11-22T22:25:38.372Z,13.18
2022-11-22T22:28:10.387Z,9.65
2022-11-22T22:30:42.336Z,10.57
2022-11-22T22:33:14.379Z,12.60
2022-11-22T22:35:46.676Z,11.07
2022-11-22T22:38:18.759Z,12.40
2022-11-22T22:40:55.215Z,11.80
2022-11-22T22:43:31.375Z,9.18
2022-11-22T22:46:09.958Z,10.57
2022-11-22T22:48:42.872Z,9.20
2022-11-22T22:51:17.500Z,10.75
2022-11-22T22:53:49.568Z,8.27
2022-11-22T22:56:22.471Z,7.70
2022-11-22T22:58:55.897Z,28.58
2022-11-22T23:01:30.021Z,52.47
2022-11-22T23:04:02.585Z,13.98
2022-11-22T23:06:37.289Z,10.93
2022-11-22T23:09:10.952Z,13.38
2022-11-22T23:12:02.018Z,9.85
2022-11-22T23:14:34.022Z,9.82
2022-11-22T23:17:07.959Z,14.18
2022-11-22T23:19:40.014Z,11.75
2022-11-22T23:22:12.288Z,12.02
2022-11-22T23:24:44.393Z,15.15
2022-11-22T23:27:16.723Z,13.80
2022-11-22T23:29:48.774Z,12.15
2022-11-22T23:32:20.881Z,10.25
2022-11-22T23:34:52.940Z,9.73
2022-11-22T23:37:25.030Z,11.00
2022-11-22T23:39:57.168Z,8.77
2022-11-22T23:42:29.546Z,8.25
2022-11-22T23:45:01.590Z,11.35
2022-11-22T23:47:35.409Z,10.90
2022-11-22T23:50:07.835Z,9.68
2022-11-22T23:52:39.801Z,8.45
2022-11-22T23:55:12.145Z,7.50
2022-11-22T23:57:44.251Z,13.35
